sensor_id;sensor_type;location;lat;lon;timestamp;pressure;altitude;pressure_sealevel;temperature;humidity
11198;BME280;5655;48.744;9.162;2023-05-09T00:00:27;96510.00;;;14.97;100.00
11198;BME280;5655;48.744;9.162;2023-05-09T00:02:53;96515.41;;;15.01;100.00
11198;BME280;5655;48.744;9.162;2023-05-09T00:05:19;96521.91;;;15.25;100.00
11198;BME280;5655;48.744;9.162;2023-05-09T00:07:45;96505.34;;;15.19;100.00
11198;BME280;5655;48.744;9.162;2023-05-09T00:10:10;96508.06;;;15.09;100.00
11198;BME280;5655;48.744;9.162;2023-05-09T00:12:35;96515.38;;;15.12;100.00
11198;BME280;5655;48.744;9.162;2023-05-09T00:15:01;96523.44;;;15.19;100.00
11198;BME280;5655;48.744;9.162;2023-05-09T00:17:27;96526.56;;;15.14;100.00
11198;BME280;5655;48.744;9.162;2023-05-09T00:19:53;96523.44;;;15.19;100.00
11198;BME280;5655;48.744;9.162;2023-05-09T00:22:19;96516.16;;;15.16;100.00
11198;BME280;5655;48.744;9.162;2023-05-09T00:24:48;96517.69;;;15.13;100.00
11198;BME280;5655;48.744;9.162;2023-05-09T00:27:14;96516.91;;;15.16;100.00
11198;BME280;5655;48.744;9.162;2023-05-09T00:29:40;96513.84;;;15.21;100.00
11198;BME280;5655;48.744;9.162;2023-05-09T00:32:05;96514.97;;;15.24;100.00
11198;BME280;5655;48.744;9.162;2023-05-09T00:34:31;96513.84;;;15.18;100.00
11198;BME280;5655;48.744;9.162;2023-05-09T00:36:57;96501.53;;;15.13;100.00
11198;BME280;5655;48.744;9.162;2023-05-09T00:39:22;96509.63;;;15.10;100.00
11198;BME280;5655;48.744;9.162;2023-05-09T00:41:47;96509.22;;;15.11;100.00
11198;BME280;5655;48.744;9.162;2023-05-09T00:44:12;96506.16;;;15.06;100.00
11198;BME280;5655;48.744;9.162;2023-05-09T00:46:38;96517.69;;;15.17;100.00
11198;BME280;5655;48.744;9.162;2023-05-09T00:49:04;96508.09;;;15.05;100.00
11198;BME280;5655;48.744;9.162;2023-05-09T00:51:30;96510.78;;;15.09;100.00
11198;BME280;5655;48.744;9.162;2023-05-09T00:53:55;96499.22;;;14.97;100.00
11198;BME280;5655;48.744;9.162;2023-05-09T00:56:20;96489.19;;;15.16;100.00
11198;BME280;5655;48.744;9.162;2023-05-09T00:58:46;96478.41;;;15.23;100.00
11198;BME280;5655;48.744;9.162;2023-05-09T01:01:12;96478.41;;;15.16;100.00
11198;BME280;5655;48.744;9.162;2023-05-09T01:03:38;96476.06;;;15.25;100.00
11198;BME280;5655;48.744;9.162;2023-05-09T01:08:57;96448.38;;;15.14;100.00
11198;BME280;5655;48.744;9.162;2023-05-09T01:11:47;96454.06;;;15.37;100.00
11198;BME280;5655;48.744;9.162;2023-05-09T01:17:09;96439.09;;;15.15;100.00
11198;BME280;5655;48.744;9.162;2023-05-09T01:20:02;96432.19;;;15.17;100.00
11198;BME280;5655;48.744;9.162;2023-05-09T01:22:36;96436.84;;;15.10;100.00
11198;BME280;5655;48.744;9.162;2023-05-09T01:25:32;96447.22;;;15.18;100.00
11198;BME280;5655;48.744;9.162;2023-05-09T01:30:56;96434.53;;;14.97;100.00
11198;BME280;5655;48.744;9.162;2023-05-09T01:33:25;96441.47;;;15.06;100.00
11198;BME280;5655;48.744;9.162;2023-05-09T01:35:57;96440.69;;;15.05;100.00
11198;BME280;5655;48.744;9.162;2023-05-09T01:38:24;96432.22;;;15.03;100.00
11198;BME280;5655;48.744;9.162;2023-05-09T01:40:53;96430.28;;;15.07;100.00
11198;BME280;5655;48.744;9.162;2023-05-09T01:43:20;96424.47;;;15.16;100.00
11198;BME280;5655;48.744;9.162;2023-05-09T01:45:48;96419.16;;;14.94;100.00
11198;BME280;5655;48.744;9.162;2023-05-09T01:48:15;96411.84;;;14.81;100.00
11198;BME280;5655;48.744;9.162;2023-05-09T01:50:43;96417.63;;;14.86;100.00
11198;BME280;5655;48.744;9.162;2023-05-09T01:53:10;96412.25;;;14.79;100.00
11198;BME280;5655;48.744;9.162;2023-05-09T01:55:36;96419.94;;;14.91;100.00
11198;BME280;5655;48.744;9.162;2023-05-09T01:58:04;96420.66;;;15.03;100.00
11198;BME280;5655;48.744;9.162;2023-05-09T02:00:32;96407.56;;;15.08;100.00
11198;BME280;5655;48.744;9.162;2023-05-09T02:02:58;96396.88;;;14.69;100.00
11198;BME280;5655;48.744;9.162;2023-05-09T02:05:26;96419.97;;;14.60;100.00
11198;BME280;5655;48.744;9.162;2023-05-09T02:07:54;96413.81;;;14.70;100.00
11198;BME280;5655;48.744;9.162;2023-05-09T02:10:22;96409.56;;;14.79;100.00
11198;BME280;5655;48.744;9.162;2023-05-09T02:12:50;96414.56;;;14.88;100.00
11198;BME280;5655;48.744;9.162;2023-05-09T02:15:15;96412.97;;;15.05;100.00
11198;BME280;5655;48.744;9.162;2023-05-09T02:17:40;96402.22;;;14.90;100.00
11198;BME280;5655;48.744;9.162;2023-05-09T02:20:07;96413.00;;;14.90;100.00
11198;BME280;5655;48.744;9.162;2023-05-09T02:22:34;96411.44;;;14.96;100.00
11198;BME280;5655;48.744;9.162;2023-05-09T02:25:00;96405.25;;;15.07;100.00
11198;BME280;5655;48.744;9.162;2023-05-09T02:27:27;96412.63;;;14.92;100.00
11198;BME280;5655;48.744;9.162;2023-05-09T02:29:55;96407.94;;;15.07;100.00
11198;BME280;5655;48.744;9.162;2023-05-09T02:32:25;96416.84;;;14.89;100.00
11198;BME280;5655;48.744;9.162;2023-05-09T02:34:51;96413.81;;;14.56;100.00
11198;BME280;5655;48.744;9.162;2023-05-09T02:37:17;96416.09;;;14.78;100.00
11198;BME280;5655;48.744;9.162;2023-05-09T02:39:43;96411.44;;;14.89;100.00
11198;BME280;5655;48.744;9.162;2023-05-09T02:42:10;96424.59;;;14.73;100.00
11198;BME280;5655;48.744;9.162;2023-05-09T02:44:36;96409.59;;;14.65;100.00
11198;BME280;5655;48.744;9.162;2023-05-09T02:47:03;96422.31;;;14.58;100.00
11198;BME280;5655;48.744;9.162;2023-05-09T02:49:29;96415.38;;;14.53;100.00
11198;BME280;5655;48.744;9.162;2023-05-09T02:51:54;96414.59;;;14.56;100.00
11198;BME280;5655;48.744;9.162;2023-05-09T02:54:19;96421.13;;;14.69;100.00
11198;BME280;5655;48.744;9.162;2023-05-09T02:56:45;96409.56;;;14.72;100.00
11198;BME280;5655;48.744;9.162;2023-05-09T02:59:11;96406.50;;;14.63;100.00
11198;BME280;5655;48.744;9.162;2023-05-09T03:01:36;96401.53;;;14.58;100.00
11198;BME280;5655;48.744;9.162;2023-05-09T03:04:01;96404.59;;;14.60;100.00
11198;BME280;5655;48.744;9.162;2023-05-09T03:06:27;96399.19;;;14.60;100.00
11198;BME280;5655;48.744;9.162;2023-05-09T03:08:52;96389.97;;;14.47;100.00
11198;BME280;5655;48.744;9.162;2023-05-09T03:11:17;96394.56;;;14.64;100.00
11198;BME280;5655;48.744;9.162;2023-05-09T03:13:43;96393.03;;;14.35;100.00
11198;BME280;5655;48.744;9.162;2023-05-09T03:16:12;96404.59;;;14.46;100.00
11198;BME280;5655;48.744;9.162;2023-05-09T03:18:38;96395.75;;;14.28;100.00
11198;BME280;5655;48.744;9.162;2023-05-09T03:21:04;96401.53;;;14.47;100.00
11198;BME280;5655;48.744;9.162;2023-05-09T03:23:29;96401.13;;;14.31;100.00
11198;BME280;5655;48.744;9.162;2023-05-09T03:25:54;96396.13;;;14.51;100.00
11198;BME280;5655;48.744;9.162;2023-05-09T03:28:20;96386.84;;;14.87;100.00
11198;BME280;5655;48.744;9.162;2023-05-09T03:30:45;96367.91;;;15.02;100.00
11198;BME280;5655;48.744;9.162;2023-05-09T03:33:10;96356.00;;;14.95;100.00
11198;BME280;5655;48.744;9.162;2023-05-09T03:35:35;96358.31;;;14.93;100.00
11198;BME280;5655;48.744;9.162;2023-05-09T03:38:01;96348.28;;;15.05;100.00
11198;BME280;5655;48.744;9.162;2023-05-09T03:40:26;96331.25;;;15.15;100.00
11198;BME280;5655;48.744;9.162;2023-05-09T03:42:51;96336.75;;;14.93;100.00
11198;BME280;5655;48.744;9.162;2023-05-09T03:45:17;96341.09;;;14.59;100.00
11198;BME280;5655;48.744;9.162;2023-05-09T03:47:42;96351.47;;;14.64;100.00
11198;BME280;5655;48.744;9.162;2023-05-09T03:50:08;96344.88;;;14.83;100.00
11198;BME280;5655;48.744;9.162;2023-05-09T03:52:33;96342.97;;;14.76;100.00
11198;BME280;5655;48.744;9.162;2023-05-09T03:54:58;96341.38;;;14.89;100.00
11198;BME280;5655;48.744;9.162;2023-05-09T03:57:24;96336.81;;;14.79;100.00
11198;BME280;5655;48.744;9.162;2023-05-09T03:59:49;96333.38;;;14.68;100.00
11198;BME280;5655;48.744;9.162;2023-05-09T04:02:15;96332.97;;;14.73;100.00
11198;BME280;5655;48.744;9.162;2023-05-09T04:04:40;96332.25;;;14.55;100.00
11198;BME280;5655;48.744;9.162;2023-05-09T04:07:06;96336.88;;;14.51;100.00
11198;BME280;5655;48.744;9.162;2023-05-09T04:09:31;96335.34;;;14.57;100.00
11198;BME280;5655;48.744;9.162;2023-05-09T04:11:56;96332.25;;;14.62;100.00
11198;BME280;5655;48.744;9.162;2023-05-09T04:14:22;96329.94;;;14.61;100.00
11198;BME280;5655;48.744;9.162;2023-05-09T04:16:47;96332.94;;;14.80;100.00
11198;BME280;5655;48.744;9.162;2023-05-09T04:19:12;96333.38;;;14.68;100.00
11198;BME280;5655;48.744;9.162;2023-05-09T04:21:37;96320.66;;;14.72;100.00
11198;BME280;5655;48.744;9.162;2023-05-09T04:24:03;96323.78;;;14.60;100.00
11198;BME280;5655;48.744;9.162;2023-05-09T04:26:28;96316.81;;;14.73;100.00
11198;BME280;5655;48.744;9.162;2023-05-09T04:28:55;96320.31;;;14.67;100.00
11198;BME280;5655;48.744;9.162;2023-05-09T04:31:20;96322.19;;;14.73;100.00
11198;BME280;5655;48.744;9.162;2023-05-09T04:33:47;96321.50;;;14.51;100.00
11198;BME280;5655;48.744;9.162;2023-05-09T04:36:12;96333.78;;;14.60;100.00
11198;BME280;5655;48.744;9.162;2023-05-09T04:38:37;96332.25;;;14.62;100.00
11198;BME280;5655;48.744;9.162;2023-05-09T04:41:03;96339.94;;;14.60;100.00
11198;BME280;5655;48.744;9.162;2023-05-09T04:43:28;96341.84;;;14.67;100.00
11198;BME280;5655;48.744;9.162;2023-05-09T04:45:54;96334.56;;;14.53;100.00
11198;BME280;5655;48.744;9.162;2023-05-09T04:48:19;96340.66;;;14.71;100.00
11198;BME280;5655;48.744;9.162;2023-05-09T04:50:44;96335.31;;;14.64;100.00
11198;BME280;5655;48.744;9.162;2023-05-09T04:53:12;96341.03;;;14.80;100.00
11198;BME280;5655;48.744;9.162;2023-05-09T04:55:38;96339.13;;;14.77;100.00
11198;BME280;5655;48.744;9.162;2023-05-09T04:58:03;96339.06;;;14.91;100.00
11198;BME280;5655;48.744;9.162;2023-05-09T05:00:28;96330.59;;;14.93;100.00
11198;BME280;5655;48.744;9.162;2023-05-09T05:02:54;96334.50;;;14.78;100.00
11198;BME280;5655;48.744;9.162;2023-05-09T05:05:19;96337.56;;;14.76;100.00
11198;BME280;5655;48.744;9.162;2023-05-09T05:07:45;96341.44;;;14.68;100.00
11198;BME280;5655;48.744;9.162;2023-05-09T05:10:10;96348.06;;;14.39;100.00
11198;BME280;5655;48.744;9.162;2023-05-09T05:12:36;96345.31;;;14.60;100.00
11198;BME280;5655;48.744;9.162;2023-05-09T05:15:01;96348.34;;;14.83;100.00
11198;BME280;5655;48.744;9.162;2023-05-09T05:17:26;96348.75;;;14.71;100.00
11198;BME280;5655;48.744;9.162;2023-05-09T05:19:53;96351.44;;;14.71;100.00
11198;BME280;5655;48.744;9.162;2023-05-09T05:22:19;96349.19;;;14.56;100.00
11198;BME280;5655;48.744;9.162;2023-05-09T05:24:44;96341.47;;;14.54;100.00
11198;BME280;5655;48.744;9.162;2023-05-09T05:27:09;96353.78;;;14.69;100.00
11198;BME280;5655;48.744;9.162;2023-05-09T05:29:35;96354.56;;;14.59;100.00
11198;BME280;5655;48.744;9.162;2023-05-09T05:32:00;96355.38;;;14.49;100.00
11198;BME280;5655;48.744;9.162;2023-05-09T05:34:25;96356.91;;;14.53;100.00
11198;BME280;5655;48.744;9.162;2023-05-09T05:36:50;96358.44;;;14.44;100.00
11198;BME280;5655;48.744;9.162;2023-05-09T05:39:16;96348.81;;;14.50;100.00
11198;BME280;5655;48.744;9.162;2023-05-09T05:41:42;96353.00;;;14.69;100.00
11198;BME280;5655;48.744;9.162;2023-05-09T05:44:07;96358.06;;;14.42;100.00
11198;BME280;5655;48.744;9.162;2023-05-09T05:46:32;96361.50;;;14.53;100.00
11198;BME280;5655;48.744;9.162;2023-05-09T05:48:58;96356.88;;;14.46;100.00
11198;BME280;5655;48.744;9.162;2023-05-09T05:51:23;96352.25;;;14.54;100.00
11198;BME280;5655;48.744;9.162;2023-05-09T05:53:48;96348.06;;;14.18;100.00
11198;BME280;5655;48.744;9.162;2023-05-09T05:56:13;96359.16;;;14.59;100.00
11198;BME280;5655;48.744;9.162;2023-05-09T05:58:39;96348.00;;;14.67;100.00
11198;BME280;5655;48.744;9.162;2023-05-09T06:01:04;96339.09;;;14.81;100.00
11198;BME280;5655;48.744;9.162;2023-05-09T06:03:30;96337.56;;;14.80;100.00
11198;BME280;5655;48.744;9.162;2023-05-09T06:05:56;96340.66;;;14.71;100.00
11198;BME280;5655;48.744;9.162;2023-05-09T06:08:21;96334.94;;;14.66;100.00
11198;BME280;5655;48.744;9.162;2023-05-09T06:10:47;96321.31;;;14.97;100.00
11198;BME280;5655;48.744;9.162;2023-05-09T06:13:12;96327.50;;;14.94;100.00
11198;BME280;5655;48.744;9.162;2023-05-09T06:15:37;96324.44;;;14.92;100.00
11198;BME280;5655;48.744;9.162;2023-05-09T06:18:03;96316.00;;;14.83;100.00
11198;BME280;5655;48.744;9.162;2023-05-09T06:20:28;96315.13;;;15.08;100.00
11198;BME280;5655;48.744;9.162;2023-05-09T06:22:53;96306.56;;;15.27;100.00
11198;BME280;5655;48.744;9.162;2023-05-09T06:25:18;96293.34;;;15.50;100.00
11198;BME280;5655;48.744;9.162;2023-05-09T06:27:44;96286.38;;;15.56;100.00
11198;BME280;5655;48.744;9.162;2023-05-09T06:30:09;96283.50;;;15.77;100.00
11198;BME280;5655;48.744;9.162;2023-05-09T06:32:35;96277.81;;;15.65;100.00
11198;BME280;5655;48.744;9.162;2023-05-09T06:35:00;96267.00;;;15.68;100.00
11198;BME280;5655;48.744;9.162;2023-05-09T06:37:26;96263.38;;;15.34;100.00
11198;BME280;5655;48.744;9.162;2023-05-09T06:39:51;96253.13;;;15.70;100.00
11198;BME280;5655;48.744;9.162;2023-05-09T06:42:16;96257.00;;;15.65;100.00
11198;BME280;5655;48.744;9.162;2023-05-09T06:44:42;96249.97;;;15.78;100.00
11198;BME280;5655;48.744;9.162;2023-05-09T06:47:08;96246.06;;;15.79;100.00
11198;BME280;5655;48.744;9.162;2023-05-09T06:49:33;96242.75;;;16.06;100.00
11198;BME280;5655;48.744;9.162;2023-05-09T06:51:58;96242.84;;;15.99;100.00
11198;BME280;5655;48.744;9.162;2023-05-09T06:54:24;96228.72;;;16.21;100.00
11198;BME280;5655;48.744;9.162;2023-05-09T06:56:49;96227.88;;;16.28;100.00
11198;BME280;5655;48.744;9.162;2023-05-09T06:59:14;96226.34;;;16.27;100.00
11198;BME280;5655;48.744;9.162;2023-05-09T07:01:40;96217.78;;;16.32;100.00
11198;BME280;5655;48.744;9.162;2023-05-09T07:04:06;96215.91;;;16.63;100.00
11198;BME280;5655;48.744;9.162;2023-05-09T07:06:31;96204.28;;;16.66;100.00
11198;BME280;5655;48.744;9.162;2023-05-09T07:08:57;96205.78;;;16.70;100.00
11198;BME280;5655;48.744;9.162;2023-05-09T07:11:22;96192.28;;;16.97;100.00
11198;BME280;5655;48.744;9.162;2023-05-09T07:13:48;96195.94;;;16.84;100.00
11198;BME280;5655;48.744;9.162;2023-05-09T07:16:13;96195.03;;;16.94;100.00
11198;BME280;5655;48.744;9.162;2023-05-09T07:18:39;96192.38;;;16.63;100.00
11198;BME280;5655;48.744;9.162;2023-05-09T07:21:04;96191.69;;;16.86;100.00
11198;BME280;5655;48.744;9.162;2023-05-09T07:23:29;96181.47;;;16.97;100.00
11198;BME280;5655;48.744;9.162;2023-05-09T07:25:56;96178.66;;;17.04;100.00
11198;BME280;5655;48.744;9.162;2023-05-09T07:28:22;96171.06;;;16.69;100.00
11198;BME280;5655;48.744;9.162;2023-05-09T07:30:47;96163.06;;;16.89;100.00
11198;BME280;5655;48.744;9.162;2023-05-09T07:33:12;96158.22;;;17.03;100.00
11198;BME280;5655;48.744;9.162;2023-05-09T07:35:38;96143.84;;;17.33;100.00
11198;BME280;5655;48.744;9.162;2023-05-09T07:38:03;96147.72;;;17.32;100.00
11198;BME280;5655;48.744;9.162;2023-05-09T07:40:30;96151.00;;;17.20;100.00
11198;BME280;5655;48.744;9.162;2023-05-09T07:42:56;96142.06;;;17.46;100.00
11198;BME280;5655;48.744;9.162;2023-05-09T07:45:21;96142.50;;;17.68;100.00
11198;BME280;5655;48.744;9.162;2023-05-09T07:47:46;96137.88;;;17.88;100.00
11198;BME280;5655;48.744;9.162;2023-05-09T07:50:12;96137.69;;;17.99;100.00
11198;BME280;5655;48.744;9.162;2023-05-09T07:52:37;96130.09;;;18.10;100.00
11198;BME280;5655;48.744;9.162;2023-05-09T07:55:02;96126.72;;;18.06;100.00
11198;BME280;5655;48.744;9.162;2023-05-09T07:57:28;96122.47;;;18.05;100.00
11198;BME280;5655;48.744;9.162;2023-05-09T07:59:53;96122.97;;;18.20;100.00
11198;BME280;5655;48.744;9.162;2023-05-09T08:02:18;96121.69;;;18.04;100.00
11198;BME280;5655;48.744;9.162;2023-05-09T08:04:44;96111.19;;;18.26;100.00
11198;BME280;5655;48.744;9.162;2023-05-09T08:07:12;96104.22;;;18.45;100.00
11198;BME280;5655;48.744;9.162;2023-05-09T08:09:38;96096.19;;;18.77;100.00
11198;BME280;5655;48.744;9.162;2023-05-09T08:12:03;96090.78;;;18.93;100.00
11198;BME280;5655;48.744;9.162;2023-05-09T08:14:29;96105.63;;;19.05;100.00
11198;BME280;5655;48.744;9.162;2023-05-09T08:16:54;96087.53;;;18.98;100.00
11198;BME280;5655;48.744;9.162;2023-05-09T08:19:19;96090.84;;;18.90;100.00
11198;BME280;5655;48.744;9.162;2023-05-09T08:21:47;96081.22;;;18.89;100.00
11198;BME280;5655;48.744;9.162;2023-05-09T08:24:13;96089.53;;;18.98;100.00
11198;BME280;5655;48.744;9.162;2023-05-09T08:26:38;96077.44;;;19.31;100.00
11198;BME280;5655;48.744;9.162;2023-05-09T08:29:03;96077.53;;;19.12;100.00
11198;BME280;5655;48.744;9.162;2023-05-09T08:31:29;96062.97;;;19.06;100.00
11198;BME280;5655;48.744;9.162;2023-05-09T08:33:54;96077.59;;;19.24;100.00
11198;BME280;5655;48.744;9.162;2023-05-09T08:36:19;96072.88;;;19.44;100.00
11198;BME280;5655;48.744;9.162;2023-05-09T08:38:45;96059.31;;;19.28;100.00
11198;BME280;5655;48.744;9.162;2023-05-09T08:41:10;96058.78;;;19.33;100.00
11198;BME280;5655;48.744;9.162;2023-05-09T08:43:37;96058.88;;;19.75;100.00
11198;BME280;5655;48.744;9.162;2023-05-09T08:46:09;96045.41;;;19.26;100.00
11198;BME280;5655;48.744;9.162;2023-05-09T08:48:35;96047.63;;;19.15;100.00
11198;BME280;5655;48.744;9.162;2023-05-09T08:51:05;96061.56;;;19.62;100.00
11198;BME280;5655;48.744;9.162;2023-05-09T08:53:31;96064.63;;;19.77;100.00
11198;BME280;5655;48.744;9.162;2023-05-09T08:56:00;96071.75;;;19.87;100.00
11198;BME280;5655;48.744;9.162;2023-05-09T08:58:27;96077.44;;;19.47;100.00
11198;BME280;5655;48.744;9.162;2023-05-09T09:00:53;96068.97;;;19.45;100.00
11198;BME280;5655;48.744;9.162;2023-05-09T09:03:20;96067.22;;;19.68;100.00
11198;BME280;5655;48.744;9.162;2023-05-09T09:05:46;96069.78;;;19.87;100.00
11198;BME280;5655;48.744;9.162;2023-05-09T09:08:13;96070.06;;;19.77;100.00
11198;BME280;5655;48.744;9.162;2023-05-09T09:10:39;96072.66;;;19.97;100.00
11198;BME280;5655;48.744;9.162;2023-05-09T09:13:07;96061.53;;;19.91;100.00
11198;BME280;5655;48.744;9.162;2023-05-09T09:15:35;96054.13;;;19.79;100.00
11198;BME280;5655;48.744;9.162;2023-05-09T09:18:08;96059.88;;;20.22;100.00
11198;BME280;5655;48.744;9.162;2023-05-09T09:20:48;96061.66;;;20.42;100.00
11198;BME280;5655;48.744;9.162;2023-05-09T09:23:18;96062.88;;;19.99;100.00
11198;BME280;5655;48.744;9.162;2023-05-09T09:25:45;96050.06;;;20.12;100.00
11198;BME280;5655;48.744;9.162;2023-05-09T09:28:11;96046.59;;;20.24;100.00
11198;BME280;5655;48.744;9.162;2023-05-09T09:30:42;96044.69;;;20.37;100.00
11198;BME280;5655;48.744;9.162;2023-05-09T09:33:07;96041.00;;;20.31;100.00
11198;BME280;5655;48.744;9.162;2023-05-09T09:35:37;96038.28;;;20.31;100.00
11198;BME280;5655;48.744;9.162;2023-05-09T09:38:04;96036.00;;;20.43;100.00
11198;BME280;5655;48.744;9.162;2023-05-09T09:40:30;96035.78;;;20.50;100.00
11198;BME280;5655;48.744;9.162;2023-05-09T09:42:55;96031.84;;;20.76;100.00
11198;BME280;5655;48.744;9.162;2023-05-09T09:45:20;96032.06;;;20.69;100.00
11198;BME280;5655;48.744;9.162;2023-05-09T09:47:47;96020.06;;;20.28;100.00
11198;BME280;5655;48.744;9.162;2023-05-09T09:50:15;96029.78;;;20.55;100.00
11198;BME280;5655;48.744;9.162;2023-05-09T09:52:48;96025.09;;;20.80;100.00
11198;BME280;5655;48.744;9.162;2023-05-09T09:55:15;96015.13;;;20.65;100.00
11198;BME280;5655;48.744;9.162;2023-05-09T09:57:40;96012.28;;;20.68;100.00
11198;BME280;5655;48.744;9.162;2023-05-09T10:00:09;95998.13;;;20.73;100.00
11198;BME280;5655;48.744;9.162;2023-05-09T10:02:45;95985.06;;;20.81;100.00
11198;BME280;5655;48.744;9.162;2023-05-09T10:05:11;95988.78;;;21.21;100.00
11198;BME280;5655;48.744;9.162;2023-05-09T10:07:42;95992.84;;;21.04;100.00
11198;BME280;5655;48.744;9.162;2023-05-09T10:10:08;95995.09;;;21.06;100.00
11198;BME280;5655;48.744;9.162;2023-05-09T10:12:35;95988.88;;;21.52;100.00
11198;BME280;5655;48.744;9.162;2023-05-09T10:15:03;95984.38;;;21.37;100.00
11198;BME280;5655;48.744;9.162;2023-05-09T10:17:31;95987.41;;;21.82;100.00
11198;BME280;5655;48.744;9.162;2023-05-09T10:20:01;95980.53;;;21.47;100.00
11198;BME280;5655;48.744;9.162;2023-05-09T10:22:28;95974.69;;;21.36;100.00
11198;BME280;5655;48.744;9.162;2023-05-09T10:25:27;95975.97;;;21.44;100.00
11198;BME280;5655;48.744;9.162;2023-05-09T10:27:58;95966.91;;;21.47;100.00
11198;BME280;5655;48.744;9.162;2023-05-09T10:30:30;95961.81;;;21.58;100.00
11198;BME280;5655;48.744;9.162;2023-05-09T10:33:02;95966.56;;;21.88;100.00
11198;BME280;5655;48.744;9.162;2023-05-09T10:35:46;95956.16;;;22.27;100.00
11198;BME280;5655;48.744;9.162;2023-05-09T10:38:11;95956.53;;;22.07;100.00
11198;BME280;5655;48.744;9.162;2023-05-09T10:40:39;95946.25;;;22.51;100.00
11198;BME280;5655;48.744;9.162;2023-05-09T10:43:05;95948.69;;;22.09;100.00
11198;BME280;5655;48.744;9.162;2023-05-09T10:45:31;95948.59;;;22.22;100.00
11198;BME280;5655;48.744;9.162;2023-05-09T10:47:57;95944.94;;;22.25;100.00
11198;BME280;5655;48.744;9.162;2023-05-09T10:50:23;95947.81;;;22.70;100.00
11198;BME280;5655;48.744;9.162;2023-05-09T10:53:10;95945.00;;;22.34;100.00
11198;BME280;5655;48.744;9.162;2023-05-09T10:55:50;95930.81;;;22.08;100.00
11198;BME280;5655;48.744;9.162;2023-05-09T10:58:19;95925.06;;;22.15;100.00
11198;BME280;5655;48.744;9.162;2023-05-09T11:00:49;95920.28;;;22.86;100.00
11198;BME280;5655;48.744;9.162;2023-05-09T11:03:15;95925.94;;;22.61;100.00
11198;BME280;5655;48.744;9.162;2023-05-09T11:05:46;95911.84;;;22.53;100.00
11198;BME280;5655;48.744;9.162;2023-05-09T11:08:28;95906.47;;;22.90;100.00
11198;BME280;5655;48.744;9.162;2023-05-09T11:11:04;95905.13;;;22.85;100.00
11198;BME280;5655;48.744;9.162;2023-05-09T11:13:31;95907.38;;;23.05;100.00
11198;BME280;5655;48.744;9.162;2023-05-09T11:18:26;95906.63;;;22.86;100.00
11198;BME280;5655;48.744;9.162;2023-05-09T11:20:52;95886.84;;;22.46;100.00
11198;BME280;5655;48.744;9.162;2023-05-09T11:23:24;95882.97;;;22.92;100.00
11198;BME280;5655;48.744;9.162;2023-05-09T11:25:50;95876.56;;;23.32;100.00
11198;BME280;5655;48.744;9.162;2023-05-09T11:28:28;95874.13;;;23.52;100.00
11198;BME280;5655;48.744;9.162;2023-05-09T11:33:35;95871.72;;;23.18;100.00
11198;BME280;5655;48.744;9.162;2023-05-09T11:38:59;95870.47;;;23.64;100.00
11198;BME280;5655;48.744;9.162;2023-05-09T11:41:26;95863.53;;;23.27;100.00
11198;BME280;5655;48.744;9.162;2023-05-09T11:43:51;95855.34;;;23.45;100.00
11198;BME280;5655;48.744;9.162;2023-05-09T11:46:16;95845.22;;;23.69;100.00
11198;BME280;5655;48.744;9.162;2023-05-09T11:48:42;95851.22;;;23.91;100.00
11198;BME280;5655;48.744;9.162;2023-05-09T11:51:15;95843.25;;;23.70;100.00
11198;BME280;5655;48.744;9.162;2023-05-09T11:53:43;95836.91;;;23.64;100.00
11198;BME280;5655;48.744;9.162;2023-05-09T11:56:11;95828.31;;;24.13;100.00
11198;BME280;5655;48.744;9.162;2023-05-09T11:58:40;95824.91;;;24.03;100.00
11198;BME280;5655;48.744;9.162;2023-05-09T12:01:06;95827.16;;;24.05;100.00
11198;BME280;5655;48.744;9.162;2023-05-09T12:03:31;95821.56;;;24.32;100.00
11198;BME280;5655;48.744;9.162;2023-05-09T12:05:57;95825.25;;;24.29;100.00
11198;BME280;5655;48.744;9.162;2023-05-09T12:08:23;95819.38;;;24.12;100.00
11198;BME280;5655;48.744;9.162;2023-05-09T12:10:49;95800.09;;;24.16;100.00
11198;BME280;5655;48.744;9.162;2023-05-09T12:13:14;95811.09;;;23.98;100.00
11198;BME280;5655;48.744;9.162;2023-05-09T12:15:40;95803.38;;;24.29;100.00
11198;BME280;5655;48.744;9.162;2023-05-09T12:18:06;95797.53;;;24.74;100.00
11198;BME280;5655;48.744;9.162;2023-05-09T12:20:46;95800.56;;;24.76;100.00
11198;BME280;5655;48.744;9.162;2023-05-09T12:23:13;95796.84;;;24.65;100.00
11198;BME280;5655;48.744;9.162;2023-05-09T12:25:52;95787.31;;;24.60;100.00
11198;BME280;5655;48.744;9.162;2023-05-09T12:28:19;95787.09;;;24.25;100.00
11198;BME280;5655;48.744;9.162;2023-05-09T12:30:45;95787.44;;;24.42;100.00
11198;BME280;5655;48.744;9.162;2023-05-09T12:33:10;95778.00;;;24.43;100.00
11198;BME280;5655;48.744;9.162;2023-05-09T12:35:38;95777.22;;;24.28;100.00
11198;BME280;5655;48.744;9.162;2023-05-09T12:38:03;95771.19;;;24.24;100.00
11198;BME280;5655;48.744;9.162;2023-05-09T12:40:29;95772.22;;;24.26;100.00
11198;BME280;5655;48.744;9.162;2023-05-09T12:42:56;95764.84;;;23.52;100.00
11198;BME280;5655;48.744;9.162;2023-05-09T12:45:25;95755.50;;;23.77;100.00
11198;BME280;5655;48.744;9.162;2023-05-09T12:47:51;95755.00;;;23.78;100.00
11198;BME280;5655;48.744;9.162;2023-05-09T12:50:17;95746.28;;;24.13;100.00
11198;BME280;5655;48.744;9.162;2023-05-09T12:52:47;95751.22;;;24.00;100.00
11198;BME280;5655;48.744;9.162;2023-05-09T12:55:13;95749.94;;;23.62;100.00
11198;BME280;5655;48.744;9.162;2023-05-09T12:57:39;95750.81;;;23.68;100.00
11198;BME280;5655;48.744;9.162;2023-05-09T13:00:07;95728.78;;;23.72;100.00
11198;BME280;5655;48.744;9.162;2023-05-09T13:02:38;95739.25;;;23.73;100.00
11198;BME280;5655;48.744;9.162;2023-05-09T13:05:16;95739.84;;;23.35;100.00
11198;BME280;5655;48.744;9.162;2023-05-09T13:07:55;95726.22;;;23.68;100.00
11198;BME280;5655;48.744;9.162;2023-05-09T13:10:25;95732.91;;;23.67;100.00
11198;BME280;5655;48.744;9.162;2023-05-09T13:12:51;95718.38;;;24.09;100.00
11198;BME280;5655;48.744;9.162;2023-05-09T13:15:20;95723.03;;;23.93;100.00